CheckWX is a tool to help pilots better visualize weather data.  It is not intended as a substitute for an official pre-flight weather briefing.

12:25:38 UTC

LFPM METAR
Melun-Villaroche Air Base Airport
Melun/Villaroche, France
Current

26 mins ago

LFPM 271200Z AUTO 01009KT 330V070 CAVOK 30/23 Q1022
Observed
Jun-27 @ 12:00 UTC
Wind
  • 010° at 9 KTS
Visibility
10,000+ meters
Flight Rules
VFR
Cloud Levels
  • Clear skies
Temperature
30°C / 86°F
Dewpoint
23°C / 73°F
Heat Index
34°C / 93°F
Humidity
66%
Altimeter
30.18" Hg
Pressure
1021.92 hPa
Previous

56 mins ago

LFPM 271130Z AUTO 02008KT 340V080 CAVOK 30/22 Q1022
Observed
Jun-27 @ 11:30 UTC
Wind
  • 020° at 8 KTS
Visibility
10,000+ meters
Flight Rules
VFR
Cloud Levels
  • Clear skies
Temperature
30°C / 86°F
Dewpoint
22°C / 72°F
Heat Index
33°C / 92°F
Humidity
62%
Altimeter
30.18" Hg
Pressure
1021.92 hPa
Previous

1 hour ago

LFPM 271100Z AUTO 01007KT 330V060 CAVOK 30/22 Q1022
Observed
Jun-27 @ 11:00 UTC
Wind
  • 010° at 7 KTS
Visibility
10,000+ meters
Flight Rules
VFR
Cloud Levels
  • Clear skies
Temperature
30°C / 86°F
Dewpoint
22°C / 72°F
Heat Index
33°C / 92°F
Humidity
62%
Altimeter
30.18" Hg
Pressure
1021.92 hPa